Time;durP1;ratioP1;P1;durP2;ratioP2;P2;SDS_P1;SDS_P2;PMS_P1;PMS_P2;Temp;Humidity;BMP_temperature;BMP_pressure;BME280_temperature;BME280_humidity;BME280_pressure;Samples;Min_cycle;Max_cycle;Signal;HPM_P1;HPM_P2
2024/02/07 00:02:18;;;;;;;15.15;4.88;;;9.40;99.90;;;;;;4953548;28;20019;-60
2024/02/07 00:04:44;;;;;;;13.88;4.45;;;9.40;99.90;;;;;;4950774;28;20035;-60
2024/02/07 00:07:09;;;;;;;14.55;5.35;;;9.30;99.90;;;;;;4933401;29;20391;-61
2024/02/07 00:09:36;;;;;;;12.60;4.95;;;9.30;99.90;;;;;;4936006;29;20039;-66
2024/02/07 00:12:01;;;;;;;14.90;5.75;;;9.30;99.90;;;;;;4951893;29;20106;-60
2024/02/07 00:14:27;;;;;;;15.63;4.50;;;9.40;99.90;;;;;;4952769;29;20106;-61
2024/02/07 00:16:55;;;;;;;14.82;4.97;;;9.30;99.90;;;;;;4951728;29;20135;-61
2024/02/07 00:19:21;;;;;;;16.92;5.32;;;9.30;99.90;;;;;;4952679;29;20047;-60
2024/02/07 00:21:47;;;;;;;11.60;4.05;;;9.30;99.90;;;;;;4950710;29;20402;-60
2024/02/07 00:24:12;;;;;;;16.40;5.38;;;9.30;99.90;;;;;;4950265;29;20043;-60
2024/02/07 00:26:38;;;;;;;15.48;4.75;;;9.30;99.90;;;;;;4952115;29;20160;-60
2024/02/07 00:29:04;;;;;;;13.23;4.70;;;9.40;99.90;;;;;;4951288;28;20027;-60
2024/02/07 00:31:29;;;;;;;15.38;5.25;;;9.40;99.90;;;;;;4951791;29;20055;-60
2024/02/07 00:33:55;;;;;;;14.57;4.68;;;9.40;99.90;;;;;;4952569;29;20156;-61
2024/02/07 00:36:21;;;;;;;13.68;5.32;;;9.40;99.90;;;;;;4953289;29;20023;-60
2024/02/07 00:38:46;;;;;;;12.45;4.75;;;9.40;99.90;;;;;;4952954;29;20121;-61
2024/02/07 00:41:22;;;;;;;14.88;4.70;;;9.40;99.90;;;;;;4951785;29;20510;-60
2024/02/07 00:43:48;;;;;;;12.32;4.13;;;9.40;99.90;;;;;;4949701;29;20039;-61
2024/02/07 00:46:14;;;;;;;11.60;5.43;;;9.40;99.90;;;;;;4952387;29;20035;-59
2024/02/07 00:48:40;;;;;;;13.98;4.82;;;9.40;99.90;;;;;;4952630;29;20039;-60
2024/02/07 00:51:07;;;;;;;11.43;4.07;;;9.40;99.90;;;;;;4951107;29;20026;-60
2024/02/07 00:53:33;;;;;;;9.68;3.88;;;9.50;99.90;;;;;;4952664;29;20027;-60
2024/02/07 00:55:58;;;;;;;9.05;3.60;;;9.40;99.90;;;;;;4951339;29;20039;-60
2024/02/07 00:58:24;;;;;;;11.13;4.32;;;9.40;99.90;;;;;;4952320;29;20531;-60
2024/02/07 01:00:50;;;;;;;13.02;5.25;;;9.40;99.90;;;;;;4951805;29;20031;-60
2024/02/07 01:03:15;;;;;;;12.52;4.85;;;9.50;99.90;;;;;;4951856;29;20109;-59
2024/02/07 01:05:41;;;;;;;8.98;3.97;;;9.50;99.90;;;;;;4951206;29;20031;-60
2024/02/07 01:08:07;;;;;;;13.00;4.10;;;9.60;99.90;;;;;;4951897;29;20031;-60
2024/02/07 01:10:32;;;;;;;11.93;4.20;;;9.50;99.90;;;;;;4956422;28;20033;-60
2024/02/07 01:12:58;;;;;;;9.95;3.65;;;9.50;99.90;;;;;;4939838;29;20052;-60
2024/02/07 01:15:24;;;;;;;12.52;5.38;;;9.60;99.90;;;;;;4951572;29;20031;-60
2024/02/07 01:17:49;;;;;;;12.63;5.43;;;9.50;99.90;;;;;;4954538;28;20463;-60
2024/02/07 01:20:15;;;;;;;16.38;5.13;;;9.40;99.90;;;;;;4948276;29;20514;-60
2024/02/07 01:22:40;;;;;;;15.75;4.43;;;9.50;99.90;;;;;;4952544;28;20138;-60
2024/02/07 01:25:06;;;;;;;12.82;5.50;;;9.50;99.90;;;;;;4951089;29;20039;-60
2024/02/07 01:27:32;;;;;;;18.02;5.00;;;9.60;99.90;;;;;;4943147;29;20499;-60
2024/02/07 01:30:01;;;;;;;13.23;4.40;;;9.60;99.90;;;;;;4950940;29;20106;-61
2024/02/07 01:32:27;;;;;;;11.30;4.57;;;9.60;99.90;;;;;;4952404;29;20395;-60
2024/02/07 01:34:52;;;;;;;11.18;4.45;;;9.60;99.90;;;;;;4951092;29;20031;-61
2024/02/07 01:37:18;;;;;;;16.75;5.75;;;9.60;99.90;;;;;;4952139;29;20035;-60
2024/02/07 01:39:44;;;;;;;12.45;5.30;;;9.70;99.90;;;;;;4951442;29;20046;-60
2024/02/07 01:42:09;;;;;;;14.10;6.00;;;9.70;99.90;;;;;;4951194;28;20106;-60
2024/02/07 01:44:37;;;;;;;9.27;3.90;;;9.70;99.90;;;;;;4951471;29;20031;-61
2024/02/07 01:47:12;;;;;;;13.52;4.20;;;9.60;99.90;;;;;;4954120;28;20114;-60
2024/02/07 01:49:48;;;;;;;9.90;3.75;;;9.60;99.90;;;;;;4952833;28;20048;-60
2024/02/07 01:52:17;;;;;;;12.35;4.53;;;9.70;99.90;;;;;;4950142;28;20016;-60
2024/02/07 01:54:42;;;;;;;12.23;4.80;;;9.60;99.90;;;;;;4952465;28;20036;-60
2024/02/07 01:57:08;;;;;;;13.50;5.05;;;9.60;99.90;;;;;;4951294;29;20093;-60
2024/02/07 01:59:36;;;;;;;10.23;3.85;;;9.60;99.90;;;;;;4951010;29;20031;-60
2024/02/07 02:02:05;;;;;;;12.18;4.10;;;9.70;99.90;;;;;;4951164;29;20122;-60
2024/02/07 02:04:33;;;;;;;14.05;3.47;;;9.70;99.90;;;;;;4950211;29;20031;-60
2024/02/07 02:06:59;;;;;;;11.55;3.88;;;9.60;99.90;;;;;;4950911;29;20038;-60
2024/02/07 02:09:25;;;;;;;8.75;3.15;;;9.60;99.90;;;;;;4951165;29;20475;-60
2024/02/07 02:11:52;;;;;;;7.63;3.17;;;9.70;99.90;;;;;;4954375;28;20054;-60
2024/02/07 02:14:19;;;;;;;9.65;3.85;;;9.70;99.90;;;;;;4950849;29;20029;-60
2024/02/07 02:16:44;;;;;;;10.32;3.63;;;9.60;99.90;;;;;;4951113;29;20019;-60
2024/02/07 02:19:10;;;;;;;8.77;2.88;;;9.60;99.90;;;;;;4949906;29;20063;-59
2024/02/07 02:21:55;;;;;;;8.27;3.33;;;9.70;99.90;;;;;;4949601;29;20065;-60
2024/02/07 02:24:20;;;;;;;11.55;5.18;;;9.60;99.90;;;;;;4949605;29;20031;-59
2024/02/07 02:27:27;;;;;;;10.55;4.30;;;9.60;99.90;;;;;;4950862;29;20042;-59
2024/02/07 02:29:53;;;;;;;10.50;3.45;;;9.60;99.90;;;;;;4958506;28;20035;-59
2024/02/07 02:32:21;;;;;;;9.82;3.63;;;9.60;99.90;;;;;;4951012;29;20066;-59
2024/02/07 02:34:50;;;;;;;13.40;3.92;;;9.50;99.90;;;;;;4949478;29;20024;-59
2024/02/07 02:37:17;;;;;;;8.75;4.05;;;9.50;99.90;;;;;;4948644;29;20047;-60
2024/02/07 02:39:43;;;;;;;12.65;5.30;;;9.50;99.90;;;;;;4950492;29;20039;-60
2024/02/07 02:42:09;;;;;;;10.38;4.55;;;9.50;99.90;;;;;;4950932;29;20073;-61
2024/02/07 02:44:35;;;;;;;11.73;4.97;;;9.50;99.90;;;;;;4950442;29;20019;-61
2024/02/07 02:47:02;;;;;;;9.00;3.38;;;9.50;99.90;;;;;;4950262;29;20039;-61
2024/02/07 02:49:29;;;;;;;5.88;1.70;;;9.50;99.90;;;;;;4950482;29;20431;-61
2024/02/07 02:51:55;;;;;;;6.60;1.50;;;9.20;99.90;;;;;;4948563;29;20035;-61
2024/02/07 02:54:21;;;;;;;5.18;1.90;;;8.40;99.90;;;;;;4949987;29;20111;-61
2024/02/07 02:56:47;;;;;;;5.30;1.40;;;7.70;99.90;;;;;;4950835;29;20110;-61
2024/02/07 02:59:14;;;;;;;5.57;1.30;;;7.00;99.90;;;;;;4949975;29;20086;-61
2024/02/07 03:01:40;;;;;;;5.45;1.30;;;6.50;99.90;;;;;;4951216;29;20475;-61
2024/02/07 03:04:06;;;;;;;8.05;1.52;;;6.20;99.90;;;;;;4950111;29;20035;-61
2024/02/07 03:06:50;;;;;;;5.97;1.30;;;5.80;99.90;;;;;;4945988;29;20097;-62
2024/02/07 03:09:20;;;;;;;7.30;1.35;;;5.40;99.90;;;;;;4947877;29;20068;-62
2024/02/07 03:11:48;;;;;;;4.10;1.20;;;5.10;99.90;;;;;;4951433;29;20066;-61
2024/02/07 03:14:14;;;;;;;7.28;1.15;;;5.00;99.90;;;;;;4953554;28;20024;-61
2024/02/07 03:16:39;;;;;;;6.93;1.90;;;5.00;99.90;;;;;;4951561;28;20042;-62
2024/02/07 03:19:05;;;;;;;10.15;1.50;;;5.10;99.90;;;;;;4949906;29;20158;-59
2024/02/07 03:21:31;;;;;;;3.78;1.33;;;5.20;99.90;;;;;;4946608;29;20054;-62
2024/02/07 03:23:56;;;;;;;7.40;1.70;;;5.10;99.90;;;;;;4950336;29;20035;-61
2024/02/07 03:26:25;;;;;;;6.63;1.85;;;5.00;99.90;;;;;;4947227;29;20031;-62
2024/02/07 03:28:51;;;;;;;8.48;1.33;;;4.80;99.90;;;;;;4948785;29;20028;-61
2024/02/07 03:31:18;;;;;;;6.35;1.42;;;4.60;99.90;;;;;;4949371;29;20027;-62
2024/02/07 03:33:43;;;;;;;8.77;1.60;;;4.60;99.90;;;;;;4949040;29;20027;-62
2024/02/07 03:36:10;;;;;;;9.85;2.25;;;4.50;99.90;;;;;;4945924;28;20086;-61
2024/02/07 03:38:36;;;;;;;7.72;1.70;;;4.50;99.90;;;;;;4951729;28;20035;-61
2024/02/07 03:41:02;;;;;;;11.65;2.05;;;4.50;99.90;;;;;;4946783;29;20027;-62
2024/02/07 03:43:27;;;;;;;7.47;1.52;;;4.50;99.90;;;;;;4949656;29;20372;-61
2024/02/07 03:45:53;;;;;;;7.07;1.77;;;4.40;99.90;;;;;;4946563;29;20460;-61
2024/02/07 03:48:19;;;;;;;10.90;1.70;;;4.30;99.90;;;;;;4951760;28;20032;-63
2024/02/07 03:50:48;;;;;;;9.13;1.75;;;4.20;99.90;;;;;;4947739;28;20054;-60
2024/02/07 03:53:14;;;;;;;11.63;2.42;;;4.20;99.90;;;;;;4950182;29;20082;-60
2024/02/07 03:55:40;;;;;;;10.75;2.63;;;4.20;99.90;;;;;;4948415;29;20027;-60
2024/02/07 03:58:06;;;;;;;7.88;1.65;;;4.30;99.90;;;;;;4950288;29;20022;-59
2024/02/07 04:00:33;;;;;;;7.38;1.58;;;4.30;99.90;;;;;;4948562;29;20023;-60
2024/02/07 04:02:58;;;;;;;9.18;1.77;;;4.30;99.90;;;;;;4950018;29;20107;-60
2024/02/07 04:05:24;;;;;;;6.70;1.50;;;4.20;99.90;;;;;;4951177;28;20083;-61
2024/02/07 04:07:50;;;;;;;9.10;1.80;;;4.10;99.90;;;;;;4955634;28;20439;-61
2024/02/07 04:10:18;;;;;;;9.15;1.75;;;4.10;99.90;;;;;;4950361;29;20805;-59
2024/02/07 05:15:57;;;;;;;5.68;1.42;;;3.90;99.90;;;;;;4947085;28;20101;-59
2024/02/07 05:18:23;;;;;;;7.18;1.90;;;3.90;99.90;;;;;;4955159;28;20550;-61
2024/02/07 05:20:48;;;;;;;6.53;1.60;;;4.00;99.90;;;;;;4950547;28;20106;-61
2024/02/07 05:23:16;;;;;;;6.80;1.50;;;3.90;99.90;;;;;;4950994;28;20739;-61
2024/02/07 05:25:44;;;;;;;6.30;1.52;;;3.80;99.90;;;;;;4954145;28;20474;-61
2024/02/07 05:28:10;;;;;;;8.45;2.35;;;3.80;99.90;;;;;;4951038;28;20106;-62
2024/02/07 05:30:35;;;;;;;6.25;1.85;;;3.70;99.90;;;;;;4949766;29;20440;-61
2024/02/07 05:33:01;;;;;;;8.07;2.15;;;3.70;99.90;;;;;;4950834;28;20022;-61
2024/02/07 05:35:27;;;;;;;6.72;1.80;;;3.70;99.90;;;;;;4950220;29;20020;-61
2024/02/07 05:37:52;;;;;;;8.23;2.10;;;3.60;99.90;;;;;;4954259;28;20419;-61
2024/02/07 05:40:18;;;;;;;8.45;2.10;;;3.50;99.90;;;;;;4948933;28;20024;-61
2024/02/07 05:42:44;;;;;;;12.75;2.35;;;3.50;99.90;;;;;;4953596;28;20035;-61
2024/02/07 05:45:09;;;;;;;6.55;2.22;;;3.40;99.90;;;;;;4953642;28;20029;-62
2024/02/07 05:47:35;;;;;;;6.22;1.88;;;3.30;99.90;;;;;;4949910;29;20090;-61
2024/02/07 05:50:00;;;;;;;6.03;1.33;;;3.20;99.90;;;;;;4950911;28;20030;-61
2024/02/07 05:52:26;;;;;;;5.75;1.20;;;3.20;99.90;;;;;;4951418;28;20023;-61
2024/02/07 05:54:55;;;;;;;6.60;1.40;;;3.20;99.90;;;;;;4951482;28;20090;-61
2024/02/07 05:57:20;;;;;;;4.03;1.23;;;3.20;99.90;;;;;;4955217;28;20026;-61
2024/02/07 05:59:46;;;;;;;6.88;0.95;;;3.10;99.90;;;;;;4933333;29;20043;-62
2024/02/07 06:02:12;;;;;;;7.72;1.83;;;3.10;99.90;;;;;;4950702;28;20094;-61
2024/02/07 06:04:39;;;;;;;4.50;1.15;;;3.10;99.90;;;;;;4934347;28;20035;-61
2024/02/07 06:07:04;;;;;;;5.90;1.20;;;3.00;99.90;;;;;;4952362;28;20046;-62
2024/02/07 06:09:30;;;;;;;7.28;1.55;;;3.00;99.90;;;;;;4948868;29;20110;-61
2024/02/07 06:11:55;;;;;;;6.60;1.38;;;3.00;99.90;;;;;;4949456;29;20486;-61
2024/02/07 06:14:21;;;;;;;8.32;2.13;;;2.90;99.90;;;;;;4950524;29;20572;-61
2024/02/07 06:16:47;;;;;;;9.50;1.35;;;2.80;99.90;;;;;;4951008;29;20023;-61
2024/02/07 06:19:12;;;;;;;6.38;1.10;;;2.70;99.90;;;;;;4948997;28;20523;-61
2024/02/07 06:21:38;;;;;;;7.93;1.40;;;2.60;99.90;;;;;;4948240;28;20039;-61
2024/02/07 06:24:04;;;;;;;10.00;1.77;;;2.50;99.90;;;;;;4948993;28;20035;-62
2024/02/07 06:26:29;;;;;;;6.72;1.30;;;2.40;99.90;;;;;;4951340;28;20039;-62
2024/02/07 06:28:55;;;;;;;7.78;1.27;;;2.40;99.90;;;;;;4950612;28;20037;-61
2024/02/07 06:31:20;;;;;;;3.50;1.05;;;2.30;99.90;;;;;;4950158;28;20451;-61
2024/02/07 06:33:49;;;;;;;4.32;1.00;;;2.30;99.90;;;;;;4950360;28;20031;-61
2024/02/07 06:36:14;;;;;;;13.65;1.30;;;2.30;99.90;;;;;;4945751;28;20024;-61
2024/02/07 06:38:40;;;;;;;3.60;0.93;;;2.30;99.90;;;;;;4938874;29;20037;-60
2024/02/07 06:41:05;;;;;;;4.10;1.05;;;2.30;99.90;;;;;;4952533;28;20026;-59
2024/02/07 06:43:31;;;;;;;6.22;1.20;;;2.20;99.90;;;;;;4950025;28;20120;-62
2024/02/07 06:45:57;;;;;;;3.38;1.30;;;2.20;99.90;;;;;;4951792;28;20031;-62
2024/02/07 06:48:23;;;;;;;4.78;1.20;;;2.10;99.90;;;;;;4953482;28;20046;-61
2024/02/07 06:50:50;;;;;;;5.10;1.30;;;2.00;99.90;;;;;;4947995;28;20435;-61
2024/02/07 06:53:16;;;;;;;7.63;1.40;;;2.10;99.90;;;;;;4948927;28;20015;-61
2024/02/07 06:55:41;;;;;;;4.28;1.40;;;2.10;99.90;;;;;;4948057;28;20050;-61
2024/02/07 06:58:07;;;;;;;6.70;1.65;;;2.10;99.90;;;;;;4948168;28;20426;-61
2024/02/07 07:00:33;;;;;;;7.10;1.60;;;2.20;99.90;;;;;;4946365;28;20415;-61
2024/02/07 07:02:59;;;;;;;4.85;1.50;;;2.30;99.90;;;;;;4948128;28;20062;-61
2024/02/07 07:05:25;;;;;;;4.05;1.25;;;2.30;99.90;;;;;;4947547;29;20027;-61
2024/02/07 07:07:50;;;;;;;5.15;1.40;;;2.30;99.90;;;;;;4947872;29;20345;-61
2024/02/07 07:10:16;;;;;;;5.40;1.55;;;2.30;99.90;;;;;;4949579;29;20371;-62
2024/02/07 07:12:41;;;;;;;4.90;1.40;;;2.30;99.90;;;;;;4949490;29;20035;-61
2024/02/07 07:15:07;;;;;;;5.20;1.50;;;2.30;99.90;;;;;;4948923;29;20042;-61
2024/02/07 07:17:33;;;;;;;5.63;1.60;;;2.30;99.90;;;;;;4949528;29;20527;-61
2024/02/07 07:19:58;;;;;;;5.22;1.70;;;2.20;99.90;;;;;;4947868;28;20051;-60
2024/02/07 07:22:24;;;;;;;6.25;1.73;;;2.20;99.90;;;;;;4932604;29;20047;-61
2024/02/07 07:24:50;;;;;;;9.02;1.85;;;2.30;99.90;;;;;;4951758;28;20483;-61
2024/02/07 07:27:16;;;;;;;5.50;1.60;;;2.30;99.90;;;;;;4948766;29;20024;-61
2024/02/07 07:29:42;;;;;;;6.85;1.60;;;2.40;99.90;;;;;;4948479;29;20094;-61
2024/02/07 07:32:09;;;;;;;10.13;2.25;;;2.40;99.90;;;;;;4947542;29;20027;-61
2024/02/07 07:34:35;;;;;;;9.00;1.70;;;2.40;99.90;;;;;;4949608;29;20028;-61
2024/02/07 07:37:01;;;;;;;7.63;1.77;;;2.40;99.90;;;;;;4948779;29;20050;-61
2024/02/07 07:39:27;;;;;;;10.30;2.58;;;2.30;99.90;;;;;;4950413;28;20034;-61
2024/02/07 07:41:53;;;;;;;7.10;1.92;;;2.30;99.90;;;;;;4952070;28;20066;-60
2024/02/07 07:44:19;;;;;;;7.00;2.38;;;2.50;99.90;;;;;;4951923;28;20046;-60
2024/02/07 07:46:45;;;;;;;7.35;2.22;;;2.50;99.90;;;;;;4953829;29;20530;-60
2024/02/07 07:49:11;;;;;;;8.70;2.85;;;2.50;99.90;;;;;;4951067;28;20545;-60
2024/02/07 07:51:36;;;;;;;9.40;3.33;;;2.50;99.90;;;;;;4952401;29;20023;-60
2024/02/07 07:54:02;;;;;;;10.05;3.35;;;2.40;99.90;;;;;;4934221;28;20058;-60
2024/02/07 07:56:31;;;;;;;10.57;3.65;;;2.40;99.90;;;;;;4954880;28;20027;-60
2024/02/07 07:58:57;;;;;;;13.10;4.05;;;2.30;99.90;;;;;;4954548;28;20039;-61
2024/02/07 08:01:23;;;;;;;12.15;4.03;;;2.30;99.90;;;;;;4957076;28;20035;-60
2024/02/07 08:03:49;;;;;;;14.90;4.15;;;2.40;99.90;;;;;;4940133;29;20137;-59
2024/02/07 08:06:16;;;;;;;12.07;4.32;;;2.40;99.90;;;;;;4939122;28;20166;-61
2024/02/07 08:08:42;;;;;;;14.68;4.55;;;2.50;99.90;;;;;;4954128;28;20027;-61
2024/02/07 08:11:08;;;;;;;13.90;4.65;;;2.60;99.90;;;;;;4954540;28;20037;-61
2024/02/07 08:13:33;;;;;;;15.25;4.53;;;2.60;99.90;;;;;;4954051;28;20019;-61
2024/02/07 08:16:00;;;;;;;14.00;4.43;;;2.60;99.90;;;;;;4952086;28;20407;-60
2024/02/07 08:18:26;;;;;;;16.95;5.25;;;2.60;99.90;;;;;;4957831;28;20134;-60
2024/02/07 08:20:53;;;;;;;16.13;5.10;;;2.70;99.90;;;;;;4952735;28;20039;-60
2024/02/07 08:23:19;;;;;;;14.35;5.07;;;2.70;99.90;;;;;;4939933;29;20035;-60
2024/02/07 08:25:44;;;;;;;16.10;5.43;;;2.80;99.90;;;;;;4954068;28;20490;-61
2024/02/07 08:28:10;;;;;;;16.42;5.15;;;2.80;99.90;;;;;;4953961;28;20027;-61
2024/02/07 08:30:35;;;;;;;12.68;5.10;;;2.80;99.90;;;;;;4952649;28;20046;-60
2024/02/07 08:33:01;;;;;;;13.57;4.50;;;2.90;99.90;;;;;;4953103;28;20063;-61
2024/02/07 08:35:27;;;;;;;11.30;4.32;;;2.90;99.90;;;;;;4953137;28;20522;-60
2024/02/07 08:37:55;;;;;;;11.93;4.40;;;2.90;99.90;;;;;;4953843;28;20039;-61
2024/02/07 08:40:20;;;;;;;8.70;3.40;;;2.90;99.90;;;;;;4954604;28;20031;-61
2024/02/07 08:42:46;;;;;;;14.32;4.35;;;3.00;99.90;;;;;;4954317;28;20070;-61
2024/02/07 08:45:12;;;;;;;14.60;4.80;;;3.00;99.90;;;;;;4953045;28;20084;-60
2024/02/07 08:47:38;;;;;;;16.45;4.75;;;3.00;99.90;;;;;;4952341;29;20141;-61
2024/02/07 08:50:04;;;;;;;14.32;5.00;;;3.00;99.90;;;;;;4949944;28;20027;-61
2024/02/07 08:52:29;;;;;;;12.77;5.15;;;3.00;99.90;;;;;;4952226;29;20035;-59
2024/02/07 08:54:55;;;;;;;11.57;4.10;;;3.00;99.90;;;;;;4948898;29;20027;-59
2024/02/07 08:57:22;;;;;;;10.55;4.40;;;3.00;99.90;;;;;;4951239;29;20031;-61
2024/02/07 08:59:48;;;;;;;12.50;5.05;;;3.00;99.90;;;;;;4951647;29;21684;-60
2024/02/07 09:02:14;;;;;;;14.50;4.50;;;3.10;99.90;;;;;;4951411;29;20114;-60
2024/02/07 09:04:39;;;;;;;15.70;5.03;;;3.10;99.90;;;;;;4951794;29;20027;-61
2024/02/07 09:07:05;;;;;;;15.10;4.32;;;3.10;99.90;;;;;;4948223;29;20031;-58
2024/02/07 09:09:30;;;;;;;10.48;3.72;;;3.10;99.90;;;;;;4948319;29;20028;-58
2024/02/07 09:11:56;;;;;;;10.40;4.25;;;3.20;99.90;;;;;;4948150;29;20559;-59
2024/02/07 09:14:21;;;;;;;11.43;4.05;;;3.30;99.90;;;;;;4947808;29;20020;-61
2024/02/07 09:16:47;;;;;;;11.88;4.15;;;3.40;99.90;;;;;;4951965;29;20027;-59
2024/02/07 09:19:13;;;;;;;13.65;4.40;;;3.40;99.90;;;;;;4954285;28;20426;-59
2024/02/07 09:21:39;;;;;;;15.13;4.30;;;3.40;99.90;;;;;;4952127;28;20050;-59
2024/02/07 09:24:05;;;;;;;13.95;4.03;;;3.50;99.90;;;;;;4939702;28;20035;-59
2024/02/07 09:26:30;;;;;;;11.75;3.80;;;3.60;99.90;;;;;;4956460;28;20035;-58
2024/02/07 09:28:56;;;;;;;13.30;4.78;;;3.60;99.90;;;;;;4940688;29;20023;-59
2024/02/07 09:31:22;;;;;;;14.63;5.10;;;3.70;99.90;;;;;;4952505;28;20476;-59
2024/02/07 09:33:48;;;;;;;14.45;4.88;;;3.60;99.90;;;;;;4958952;28;20145;-60
2024/02/07 09:36:13;;;;;;;17.98;5.35;;;3.70;99.90;;;;;;4953022;28;20415;-59
2024/02/07 09:38:39;;;;;;;11.30;4.00;;;3.80;99.90;;;;;;4954707;28;20066;-59
2024/02/07 09:41:07;;;;;;;17.02;5.20;;;3.80;99.90;;;;;;4953474;28;20398;-59
2024/02/07 09:43:33;;;;;;;13.35;5.63;;;3.90;99.90;;;;;;4938211;28;20787;-59
2024/02/07 09:45:59;;;;;;;15.43;5.82;;;3.90;99.90;;;;;;4940838;29;20110;-60
2024/02/07 09:48:26;;;;;;;15.88;5.63;;;3.90;99.90;;;;;;4956910;28;20166;-59
2024/02/07 09:50:59;;;;;;;12.55;5.15;;;4.00;99.90;;;;;;4949287;28;20039;-60
2024/02/07 09:53:26;;;;;;;13.00;4.80;;;4.00;99.90;;;;;;4952904;28;20029;-60
2024/02/07 09:55:53;;;;;;;12.85;4.35;;;3.90;99.90;;;;;;4952674;28;20035;-60
2024/02/07 09:58:20;;;;;;;13.18;4.20;;;3.80;99.90;;;;;;4954289;28;20509;-60
2024/02/07 10:00:49;;;;;;;12.60;4.25;;;3.90;99.90;;;;;;4958338;28;20585;-60
2024/02/07 10:03:17;;;;;;;13.07;4.13;;;4.00;99.90;;;;;;4955271;28;20035;-61
2024/02/07 10:05:49;;;;;;;10.02;3.78;;;4.00;99.90;;;;;;4943415;29;20047;-61
2024/02/07 10:08:14;;;;;;;10.95;4.07;;;4.10;99.90;;;;;;4953673;28;20094;-61
2024/02/07 10:10:45;;;;;;;11.20;4.10;;;4.10;99.90;;;;;;4955298;28;20058;-61
2024/02/07 10:13:15;;;;;;;11.40;4.10;;;4.10;99.90;;;;;;4951408;28;20474;-61
2024/02/07 10:15:43;;;;;;;9.23;3.63;;;4.10;99.90;;;;;;4952423;28;20019;-61
2024/02/07 10:18:09;;;;;;;13.40;4.75;;;4.20;99.90;;;;;;4957039;28;20122;-60
2024/02/07 10:20:34;;;;;;;12.65;4.28;;;4.20;99.90;;;;;;4957492;28;20514;-61
2024/02/07 10:23:00;;;;;;;11.25;4.75;;;4.10;99.90;;;;;;4952978;28;20027;-61
2024/02/07 10:25:25;;;;;;;14.32;3.90;;;4.10;99.90;;;;;;4953000;28;20455;-61
2024/02/07 10:28:01;;;;;;;11.52;4.03;;;4.10;99.90;;;;;;4956124;28;20062;-61
2024/02/07 10:30:27;;;;;;;16.45;4.70;;;4.20;99.90;;;;;;4954096;28;20383;-61
2024/02/07 10:32:53;;;;;;;15.00;5.00;;;4.10;99.90;;;;;;4951023;28;20038;-61
2024/02/07 10:35:19;;;;;;;12.20;4.47;;;4.20;99.90;;;;;;4947816;29;20035;-61
2024/02/07 10:37:45;;;;;;;11.95;4.80;;;4.20;99.90;;;;;;4950552;28;20034;-61
2024/02/07 10:40:11;;;;;;;12.50;4.80;;;4.20;99.90;;;;;;4952218;28;20561;-61
2024/02/07 10:42:39;;;;;;;20.77;5.00;;;4.20;99.90;;;;;;4952385;28;20038;-61
2024/02/07 10:45:09;;;;;;;12.32;4.25;;;4.30;99.90;;;;;;4954561;28;20058;-61
2024/02/07 10:47:35;;;;;;;;;;;4.30;99.90;;;;;;4954355;28;20031;-61
2024/02/07 10:50:02;;;;;;;17.80;4.65;;;4.40;99.90;;;;;;4947960;28;19914;-61
2024/02/07 10:52:28;;;;;;;16.05;5.78;;;4.50;99.90;;;;;;4959454;28;20015;-61
2024/02/07 10:54:55;;;;;;;13.13;4.13;;;4.50;99.90;;;;;;4945848;29;20043;-61
2024/02/07 10:57:35;;;;;;;13.98;4.95;;;4.50;99.90;;;;;;4950303;29;20027;-61
2024/02/07 11:00:01;;;;;;;;;;;4.50;99.90;;;;;;4947773;29;20051;-61
2024/02/07 11:02:28;;;;;;;10.95;4.75;;;4.50;99.90;;;;;;4949916;29;20413;-61
2024/02/07 11:04:54;;;;;;;13.10;4.65;;;4.60;99.90;;;;;;4946915;29;20126;-61
2024/02/07 11:07:20;;;;;;;13.48;5.38;;;4.60;99.90;;;;;;4949789;29;20039;-61
2024/02/07 11:09:46;;;;;;;19.85;4.93;;;4.60;99.90;;;;;;4926635;29;20038;-61
2024/02/07 11:12:15;;;;;;;17.98;4.82;;;4.60;99.90;;;;;;4948898;29;20039;-63
2024/02/07 11:14:46;;;;;;;12.27;5.00;;;4.50;99.90;;;;;;4951742;29;20031;-61
2024/02/07 11:17:13;;;;;;;14.57;5.40;;;4.50;99.90;;;;;;4952931;29;20031;-60
2024/02/07 11:19:43;;;;;;;14.10;5.10;;;4.50;99.90;;;;;;4953420;28;20521;-60
2024/02/07 11:22:36;;;;;;;21.10;6.32;;;4.60;99.90;;;;;;4951056;29;20082;-61
2024/02/07 11:25:02;;;;;;;19.58;6.57;;;4.60;99.90;;;;;;4950403;29;20030;-61
2024/02/07 11:27:28;;;;;;;21.60;6.13;;;4.60;99.90;;;;;;4951162;29;20426;-61
2024/02/07 11:29:54;;;;;;;17.58;5.85;;;4.60;99.90;;;;;;4952659;29;20031;-60
2024/02/07 11:32:20;;;;;;;20.38;6.43;;;4.60;99.90;;;;;;4936413;29;20035;-61
2024/02/07 11:34:53;;;;;;;21.65;7.38;;;4.60;99.90;;;;;;4952286;29;20030;-60
2024/02/07 11:37:20;;;;;;;17.27;7.20;;;4.70;99.90;;;;;;4950170;29;20034;-61
2024/02/07 11:39:49;;;;;;;20.58;6.32;;;4.80;99.90;;;;;;4952645;28;20042;-61
2024/02/07 11:42:18;;;;;;;11.77;5.25;;;4.90;99.90;;;;;;4956770;28;20027;-61
2024/02/07 11:44:52;;;;;;;23.02;7.60;;;5.00;99.90;;;;;;4953998;28;20094;-61
2024/02/07 11:47:25;;;;;;;20.85;6.90;;;5.10;99.90;;;;;;4953930;28;20027;-61
2024/02/07 11:49:59;;;;;;;22.05;6.15;;;5.20;99.90;;;;;;4953911;28;20027;-61
2024/02/07 11:52:30;;;;;;;16.70;7.07;;;5.30;99.90;;;;;;4952854;28;20031;-61
2024/02/07 11:55:02;;;;;;;21.55;6.65;;;5.30;99.90;;;;;;4952722;28;20090;-60
2024/02/07 11:57:28;;;;;;;19.00;6.78;;;5.40;99.90;;;;;;4956486;28;20062;-60
2024/02/07 11:59:54;;;;;;;17.80;6.45;;;5.40;99.90;;;;;;4951559;28;20031;-60
2024/02/07 12:02:20;;;;;;;25.20;7.10;;;6.10;99.90;;;;;;4961501;28;20536;-60
2024/02/07 12:04:45;;;;;;;20.08;7.03;;;5.30;99.90;;;;;;4956599;28;20043;-60
2024/02/07 12:07:14;;;;;;;20.88;7.40;;;5.40;99.90;;;;;;4941346;29;20027;-60
2024/02/07 12:09:39;;;;;;;25.52;6.57;;;5.40;99.90;;;;;;4954488;28;20085;-61
2024/02/07 12:12:11;;;;;;;22.52;7.63;;;5.50;99.90;;;;;;4953310;28;20522;-61
2024/02/07 12:14:37;;;;;;;20.60;7.43;;;5.40;99.90;;;;;;4954906;28;20022;-60
2024/02/07 12:17:02;;;;;;;18.25;7.32;;;5.40;99.90;;;;;;4949548;28;20051;-60
2024/02/07 12:19:28;;;;;;;28.33;7.50;;;5.40;99.90;;;;;;4949319;28;20043;-60
2024/02/07 12:21:54;;;;;;;18.35;6.70;;;5.30;99.90;;;;;;4949009;28;20039;-61
2024/02/07 12:24:19;;;;;;;20.30;6.55;;;5.40;99.90;;;;;;4950901;28;20042;-61
2024/02/07 12:26:45;;;;;;;21.23;7.28;;;5.40;99.90;;;;;;4951005;28;20062;-61
2024/02/07 12:29:10;;;;;;;23.67;6.70;;;5.40;99.90;;;;;;4951529;28;20085;-61
2024/02/07 12:31:36;;;;;;;17.58;6.63;;;5.50;99.90;;;;;;4950767;28;20633;-61
2024/02/07 12:34:02;;;;;;;17.13;6.55;;;5.50;99.90;;;;;;4949704;28;20026;-61
2024/02/07 12:36:28;;;;;;;16.63;6.63;;;5.60;99.90;;;;;;4952238;28;20023;-61
2024/02/07 12:38:54;;;;;;;21.70;7.43;;;5.60;99.90;;;;;;4951123;28;20043;-61
2024/02/07 12:41:20;;;;;;;18.02;5.93;;;5.70;99.90;;;;;;4953655;28;20081;-61
2024/02/07 12:43:45;;;;;;;22.60;6.60;;;5.70;99.90;;;;;;4952167;28;20146;-61
2024/02/07 12:46:11;;;;;;;18.52;6.00;;;5.80;99.90;;;;;;4948651;28;20023;-61
2024/02/07 12:48:36;;;;;;;19.02;5.85;;;5.80;99.90;;;;;;4953907;28;20059;-62
2024/02/07 12:51:03;;;;;;;18.25;6.80;;;5.70;99.90;;;;;;4946401;28;20039;-61
2024/02/07 12:53:29;;;;;;;16.33;5.40;;;5.90;99.90;;;;;;4951429;28;20016;-61
2024/02/07 12:55:56;;;;;;;18.33;6.53;;;5.90;99.90;;;;;;4949068;29;20471;-61
2024/02/07 12:58:21;;;;;;;20.25;5.80;;;5.80;99.90;;;;;;4951409;28;20489;-61
2024/02/07 13:00:47;;;;;;;17.45;5.97;;;5.80;99.90;;;;;;4953084;28;20027;-61
2024/02/07 13:03:12;;;;;;;16.58;5.85;;;5.80;99.90;;;;;;4952065;28;20164;-61
2024/02/07 13:05:41;;;;;;;25.13;7.00;;;5.80;99.90;;;;;;4950084;28;20502;-61
2024/02/07 13:08:11;;;;;;;22.08;6.40;;;5.90;99.90;;;;;;4951793;28;20023;-61
2024/02/07 13:10:40;;;;;;;18.20;6.95;;;6.00;99.90;;;;;;4953706;28;20030;-61
2024/02/07 13:13:06;;;;;;;18.88;6.63;;;6.00;99.90;;;;;;4953958;28;20037;-61
2024/02/07 13:15:31;;;;;;;21.95;5.80;;;6.00;99.90;;;;;;4956899;28;20103;-61
2024/02/07 13:17:57;;;;;;;19.48;6.13;;;6.00;99.90;;;;;;4954070;28;20043;-61
2024/02/07 13:20:22;;;;;;;20.25;6.35;;;6.10;99.90;;;;;;4952727;28;20023;-61
2024/02/07 13:22:48;;;;;;;18.83;6.70;;;6.20;99.90;;;;;;4953193;28;20053;-61
2024/02/07 13:25:14;;;;;;;15.40;6.22;;;6.30;99.90;;;;;;4954232;28;20102;-61
2024/02/07 13:27:42;;;;;;;18.75;6.63;;;6.60;99.90;;;;;;4953245;28;20082;-61
2024/02/07 13:30:09;;;;;;;17.90;6.30;;;6.60;99.90;;;;;;4953467;28;20047;-61
2024/02/07 13:32:35;;;;;;;20.27;7.25;;;6.70;99.90;;;;;;4940589;28;20118;-61
2024/02/07 13:35:01;;;;;;;20.73;6.38;;;6.60;99.90;;;;;;4953529;28;20110;-61
2024/02/07 13:37:27;;;;;;;19.70;6.80;;;6.40;99.90;;;;;;4953159;28;20510;-60
2024/02/07 13:39:54;;;;;;;24.73;7.55;;;6.10;99.90;;;;;;4960729;28;20045;-61
2024/02/07 13:42:20;;;;;;;24.02;7.10;;;6.00;99.90;;;;;;4954166;28;20085;-61
2024/02/07 13:44:46;;;;;;;25.85;6.93;;;5.90;99.90;;;;;;4950239;28;20047;-61
2024/02/07 13:47:12;;;;;;;22.52;6.70;;;5.80;99.90;;;;;;4953755;28;20027;-61
2024/02/07 13:49:38;;;;;;;27.55;7.20;;;5.90;99.90;;;;;;4951179;28;20110;-61
2024/02/07 13:52:04;;;;;;;19.77;6.70;;;5.80;99.90;;;;;;4948737;28;20031;-61